Time;durP1;ratioP1;P1;durP2;ratioP2;P2;SDS_P1;SDS_P2;PMS_P1;PMS_P2;Temp;Humidity;BMP_temperature;BMP_pressure;BME280_temperature;BME280_humidity;BME280_pressure;Samples;Min_cycle;Max_cycle;Signal;HPM_P1;HPM_P2
2023/08/03 00:00:19;;;;;;;5.75;2.90;;;;;;;;;;5001074;28;20057;-75
2023/08/03 00:02:46;;;;;;;7.47;3.40;;;;;;;;;;5002488;28;20050;-75
2023/08/03 00:05:16;;;;;;;9.02;3.35;;;;;;;;;;5007305;28;20117;-75
2023/08/03 00:07:42;;;;;;;6.80;3.20;;;;;;;;;;5001317;28;20097;-75
2023/08/03 00:10:09;;;;;;;4.63;3.40;;;;;;;;;;5005605;28;20088;-75
2023/08/03 00:12:35;;;;;;;8.95;3.60;;;;;;;;;;4998539;28;20039;-75
2023/08/03 00:15:01;;;;;;;7.75;3.47;;;;;;;;;;5007914;28;20120;-75
2023/08/03 00:17:27;;;;;;;5.22;3.20;;;;;;;;;;5012425;28;20103;-75
2023/08/03 00:19:53;;;;;;;5.63;3.40;;;;;;;;;;5003856;28;20046;-75
2023/08/03 00:22:19;;;;;;;7.60;3.35;;;;;;;;;;4999586;28;20113;-75
2023/08/03 00:24:45;;;;;;;3.92;3.10;;;;;;;;;;4997484;28;20061;-75
2023/08/03 00:27:11;;;;;;;4.90;3.00;;;;;;;;;;5000860;28;20062;-75
2023/08/03 00:29:37;;;;;;;5.05;3.40;;;;;;;;;;5000155;28;20069;-75
2023/08/03 00:32:04;;;;;;;7.22;3.58;;;;;;;;;;5004173;28;20137;-75
2023/08/03 00:34:30;;;;;;;7.22;3.60;;;;;;;;;;5007224;28;20054;-75
2023/08/03 00:36:56;;;;;;;8.15;3.70;;;;;;;;;;5007972;28;20037;-75
2023/08/03 00:39:23;;;;;;;10.25;3.78;;;;;;;;;;5011935;28;20054;-75
2023/08/03 00:41:49;;;;;;;8.40;3.85;;;;;;;;;;5009163;28;20041;-75
2023/08/03 00:44:15;;;;;;;5.82;3.42;;;;;;;;;;5010417;28;20045;-75
2023/08/03 00:46:42;;;;;;;7.32;3.58;;;;;;;;;;5001850;28;20046;-75
2023/08/03 00:49:08;;;;;;;5.93;3.38;;;;;;;;;;4996135;28;20053;-76
2023/08/03 00:51:34;;;;;;;5.68;3.70;;;;;;;;;;5009580;28;20049;-75
2023/08/03 00:54:00;;;;;;;9.05;3.80;;;;;;;;;;5013644;28;20132;-75
2023/08/03 00:56:26;;;;;;;5.13;3.75;;;;;;;;;;5010893;28;20077;-75
2023/08/03 00:58:52;;;;;;;5.88;3.90;;;;;;;;;;5005880;28;20108;-76
2023/08/03 01:01:20;;;;;;;9.23;4.10;;;;;;;;;;5010638;28;20042;-76
2023/08/03 01:03:47;;;;;;;7.05;3.80;;;;;;;;;;5013068;28;20544;-75
2023/08/03 01:06:13;;;;;;;5.28;3.30;;;;;;;;;;5009747;28;20042;-75
2023/08/03 01:08:39;;;;;;;5.60;2.92;;;;;;;;;;4997190;28;20083;-75
2023/08/03 01:11:05;;;;;;;3.78;2.60;;;;;;;;;;5000094;28;20049;-75
2023/08/03 01:13:31;;;;;;;6.88;2.78;;;;;;;;;;4996628;28;20436;-75
2023/08/03 01:15:58;;;;;;;4.93;2.90;;;;;;;;;;4996762;28;20677;-76
2023/08/03 01:18:24;;;;;;;6.25;2.97;;;;;;;;;;4996584;28;20092;-76
2023/08/03 01:20:50;;;;;;;7.30;3.03;;;;;;;;;;4994510;28;20076;-75
2023/08/03 01:23:16;;;;;;;9.38;3.42;;;;;;;;;;5005826;28;20049;-76
2023/08/03 01:25:42;;;;;;;8.25;3.30;;;;;;;;;;5008440;28;20050;-75
2023/08/03 01:28:08;;;;;;;9.27;3.45;;;;;;;;;;5004838;28;20094;-76
2023/08/03 01:30:35;;;;;;;11.85;3.60;;;;;;;;;;4998826;28;20049;-75
2023/08/03 01:33:01;;;;;;;9.55;3.40;;;;;;;;;;4995276;28;20053;-75
2023/08/03 01:35:27;;;;;;;12.68;3.40;;;;;;;;;;4999643;28;20129;-76
2023/08/03 01:37:53;;;;;;;9.93;2.97;;;;;;;;;;5006002;28;20092;-75
2023/08/03 01:40:19;;;;;;;11.27;2.97;;;;;;;;;;5004571;28;20066;-76
2023/08/03 01:42:45;;;;;;;13.88;2.80;;;;;;;;;;5010300;28;20085;-75
2023/08/03 01:45:11;;;;;;;11.27;3.20;;;;;;;;;;5007518;28;20498;-75
2023/08/03 01:47:37;;;;;;;12.57;3.03;;;;;;;;;;5011481;28;20050;-76
2023/08/03 01:50:03;;;;;;;13.35;3.10;;;;;;;;;;5006974;28;20037;-76
2023/08/03 01:52:30;;;;;;;11.85;2.60;;;;;;;;;;5007296;28;20045;-76
2023/08/03 01:54:56;;;;;;;11.25;2.95;;;;;;;;;;5008543;28;20053;-75
2023/08/03 01:57:22;;;;;;;9.32;2.55;;;;;;;;;;5009938;28;20144;-75
2023/08/03 01:59:48;;;;;;;8.60;2.63;;;;;;;;;;5010249;28;20141;-75
2023/08/03 02:02:14;;;;;;;6.63;2.22;;;;;;;;;;5009037;28;20053;-76
2023/08/03 02:04:40;;;;;;;9.35;2.90;;;;;;;;;;5010582;28;20042;-76
2023/08/03 02:07:15;;;;;;;9.45;2.83;;;;;;;;;;5006676;28;20107;-76
2023/08/03 02:09:41;;;;;;;4.78;1.92;;;;;;;;;;4996178;28;20046;-76
2023/08/03 02:12:08;;;;;;;10.35;2.60;;;;;;;;;;4996753;28;21915;-75
2023/08/03 02:14:34;;;;;;;10.50;2.33;;;;;;;;;;4999312;28;20435;-75
2023/08/03 02:17:00;;;;;;;7.00;2.60;;;;;;;;;;5000189;28;20498;-76
2023/08/03 02:19:26;;;;;;;6.88;2.45;;;;;;;;;;4996357;28;20193;-75
2023/08/03 02:21:52;;;;;;;11.32;3.13;;;;;;;;;;4998988;28;20413;-75
2023/08/03 02:24:18;;;;;;;9.98;2.60;;;;;;;;;;5002081;28;20065;-76
2023/08/03 02:26:44;;;;;;;8.60;3.00;;;;;;;;;;5004590;28;20520;-76
2023/08/03 02:29:10;;;;;;;10.80;2.95;;;;;;;;;;4997079;28;20746;-76
2023/08/03 02:31:36;;;;;;;5.05;2.20;;;;;;;;;;4999410;28;20088;-76
2023/08/03 02:34:03;;;;;;;8.05;2.90;;;;;;;;;;4997030;28;20120;-76
2023/08/03 02:36:29;;;;;;;7.95;2.38;;;;;;;;;;5001964;28;20050;-76
2023/08/03 02:38:55;;;;;;;5.95;2.15;;;;;;;;;;4995548;28;20042;-75
2023/08/03 02:41:21;;;;;;;7.43;2.45;;;;;;;;;;4996323;28;20771;-76
2023/08/03 02:43:47;;;;;;;6.32;2.28;;;;;;;;;;4997349;28;20081;-76
2023/08/03 02:46:13;;;;;;;8.18;2.35;;;;;;;;;;4999255;28;20103;-76
2023/08/03 02:48:39;;;;;;;8.77;2.40;;;;;;;;;;5005117;28;20038;-76
2023/08/03 02:51:05;;;;;;;7.65;2.13;;;;;;;;;;5006303;28;20552;-76
2023/08/03 02:53:31;;;;;;;11.23;2.50;;;;;;;;;;5004483;28;20505;-76
2023/08/03 02:55:57;;;;;;;5.55;2.13;;;;;;;;;;4998735;28;20047;-76
2023/08/03 02:58:23;;;;;;;6.32;2.20;;;;;;;;;;4996904;28;20545;-75
2023/08/03 03:00:49;;;;;;;5.72;2.25;;;;;;;;;;5001428;28;20137;-76
2023/08/03 03:03:15;;;;;;;5.95;2.67;;;;;;;;;;5006433;28;20125;-76
2023/08/03 03:05:41;;;;;;;6.72;2.40;;;;;;;;;;5012070;28;20050;-76
2023/08/03 03:08:07;;;;;;;6.45;2.50;;;;;;;;;;5014800;28;20048;-76
2023/08/03 03:10:33;;;;;;;9.25;2.60;;;;;;;;;;5010036;28;20046;-76
2023/08/03 03:12:59;;;;;;;6.55;2.88;;;;;;;;;;5013115;28;20136;-76
2023/08/03 03:15:25;;;;;;;8.85;2.30;;;;;;;;;;5010216;28;20128;-76
2023/08/03 03:17:51;;;;;;;9.52;2.78;;;;;;;;;;5014404;28;20049;-76
2023/08/03 03:20:17;;;;;;;5.82;2.38;;;;;;;;;;5011534;28;20062;-76
2023/08/03 03:22:43;;;;;;;6.78;2.47;;;;;;;;;;5012661;28;20048;-76
2023/08/03 03:25:09;;;;;;;8.52;2.78;;;;;;;;;;5011071;28;20045;-76
2023/08/03 03:27:35;;;;;;;8.02;2.42;;;;;;;;;;5023187;28;20380;-76
2023/08/03 03:30:01;;;;;;;6.90;2.70;;;;;;;;;;5009193;28;20053;-76
2023/08/03 03:32:27;;;;;;;8.25;2.88;;;;;;;;;;5010601;28;20058;-76
2023/08/03 03:34:53;;;;;;;9.95;3.22;;;;;;;;;;5006036;28;20494;-75
2023/08/03 03:37:20;;;;;;;13.02;3.60;;;;;;;;;;5010538;28;20406;-76
2023/08/03 03:39:46;;;;;;;10.20;3.20;;;;;;;;;;5010594;28;20056;-76
2023/08/03 03:42:12;;;;;;;10.43;3.80;;;;;;;;;;5010030;28;20144;-76
2023/08/03 03:44:38;;;;;;;7.85;3.45;;;;;;;;;;5009538;28;20442;-76
2023/08/03 03:47:04;;;;;;;10.13;3.80;;;;;;;;;;5008392;28;20048;-76
2023/08/03 03:49:30;;;;;;;11.57;3.72;;;;;;;;;;5010199;28;20088;-76
2023/08/03 03:51:56;;;;;;;8.15;4.05;;;;;;;;;;5006980;28;20049;-76
2023/08/03 03:54:22;;;;;;;7.40;3.97;;;;;;;;;;5010045;28;20061;-76
2023/08/03 03:56:48;;;;;;;10.40;4.05;;;;;;;;;;5009492;28;20061;-76
2023/08/03 03:59:14;;;;;;;9.55;4.40;;;;;;;;;;5010950;28;20049;-76
2023/08/03 04:01:40;;;;;;;7.20;3.85;;;;;;;;;;5021636;28;20049;-76
2023/08/03 04:04:06;;;;;;;6.40;4.10;;;;;;;;;;5011675;28;20041;-76
2023/08/03 04:06:32;;;;;;;10.90;4.40;;;;;;;;;;5000293;28;20403;-76
2023/08/03 04:08:58;;;;;;;10.75;3.88;;;;;;;;;;5024253;28;20045;-76
2023/08/03 04:11:24;;;;;;;5.63;3.50;;;;;;;;;;5008522;28;20054;-76
2023/08/03 04:13:50;;;;;;;9.20;3.75;;;;;;;;;;5010965;28;20053;-76
2023/08/03 04:16:16;;;;;;;6.93;3.80;;;;;;;;;;5000492;28;20049;-76
2023/08/03 04:18:42;;;;;;;9.70;4.05;;;;;;;;;;5003694;28;20053;-76
2023/08/03 04:21:09;;;;;;;8.85;4.25;;;;;;;;;;5004648;28;20049;-76
2023/08/03 04:23:35;;;;;;;12.80;3.70;;;;;;;;;;5000283;28;20045;-76
2023/08/03 04:26:01;;;;;;;9.52;4.40;;;;;;;;;;4997761;28;20056;-76
2023/08/03 04:28:27;;;;;;;11.98;4.43;;;;;;;;;;5004233;28;20158;-76
2023/08/03 04:30:53;;;;;;;10.38;4.05;;;;;;;;;;5011073;28;20185;-76
2023/08/03 04:33:21;;;;;;;9.02;4.00;;;;;;;;;;5004658;28;20050;-76
2023/08/03 04:35:47;;;;;;;9.05;3.70;;;;;;;;;;5006482;28;20413;-76
2023/08/03 04:38:13;;;;;;;4.53;2.80;;;;;;;;;;5007363;28;20054;-76
2023/08/03 04:40:39;;;;;;;8.07;3.17;;;;;;;;;;5008623;28;20053;-76
2023/08/03 04:43:05;;;;;;;6.28;3.00;;;;;;;;;;5003435;28;20042;-76
2023/08/03 04:45:31;;;;;;;8.25;3.00;;;;;;;;;;5003615;28;20560;-76
2023/08/03 04:47:57;;;;;;;8.63;3.45;;;;;;;;;;5002593;28;20089;-76
2023/08/03 04:50:23;;;;;;;5.85;3.05;;;;;;;;;;5001800;28;20092;-76
2023/08/03 04:52:49;;;;;;;4.38;2.63;;;;;;;;;;5007487;28;20038;-76
2023/08/03 04:55:15;;;;;;;7.78;3.30;;;;;;;;;;5004320;28;20046;-76
2023/08/03 04:57:41;;;;;;;3.95;2.50;;;;;;;;;;5004570;28;20698;-76
2023/08/03 05:00:08;;;;;;;6.68;3.08;;;;;;;;;;5006573;28;20038;-76
2023/08/03 05:02:34;;;;;;;4.20;2.65;;;;;;;;;;5009620;28;20125;-76
2023/08/03 05:05:00;;;;;;;9.32;2.90;;;;;;;;;;5012932;28;20037;-76
2023/08/03 05:07:27;;;;;;;6.00;2.72;;;;;;;;;;5006471;28;22077;-76
2023/08/03 05:09:53;;;;;;;4.80;2.80;;;;;;;;;;5010696;28;20048;-76
2023/08/03 05:12:20;;;;;;;10.10;3.00;;;;;;;;;;5010552;28;20072;-76
2023/08/03 05:14:46;;;;;;;5.82;3.25;;;;;;;;;;5011241;28;20060;-76
2023/08/03 05:17:12;;;;;;;6.15;3.13;;;;;;;;;;5008381;28;20058;-76
2023/08/03 05:19:38;;;;;;;9.02;2.80;;;;;;;;;;5010597;28;20052;-76
2023/08/03 05:22:04;;;;;;;5.05;2.75;;;;;;;;;;5004374;28;20139;-76
2023/08/03 05:24:30;;;;;;;5.63;2.70;;;;;;;;;;5026597;28;20097;-76
2023/08/03 05:26:56;;;;;;;5.60;3.08;;;;;;;;;;5025573;28;20053;-76
2023/08/03 05:29:22;;;;;;;8.30;2.97;;;;;;;;;;5003324;28;20148;-76
2023/08/03 05:31:48;;;;;;;6.13;2.63;;;;;;;;;;4995024;28;20068;-76
2023/08/03 05:34:15;;;;;;;6.75;3.15;;;;;;;;;;4999941;28;20309;-76
2023/08/03 05:36:41;;;;;;;8.27;2.85;;;;;;;;;;5002934;28;20045;-76
2023/08/03 05:39:10;;;;;;;9.80;2.80;;;;;;;;;;4998636;28;20038;-76
2023/08/03 05:41:36;;;;;;;7.20;2.90;;;;;;;;;;5004066;28;20048;-77
2023/08/03 05:44:02;;;;;;;8.95;3.17;;;;;;;;;;5004114;28;20486;-77
2023/08/03 05:46:32;;;;;;;4.68;2.80;;;;;;;;;;4999876;28;20088;-77
2023/08/03 05:48:58;;;;;;;6.40;3.30;;;;;;;;;;5009191;28;20046;-77
2023/08/03 05:51:26;;;;;;;7.70;2.72;;;;;;;;;;5003382;28;20049;-77
2023/08/03 05:53:52;;;;;;;6.28;2.83;;;;;;;;;;4995735;28;20042;-77
2023/08/03 05:56:19;;;;;;;7.25;2.40;;;;;;;;;;5004037;28;21868;-77
2023/08/03 05:58:46;;;;;;;4.85;2.60;;;;;;;;;;4994852;28;20536;-76
2023/08/03 06:01:12;;;;;;;6.88;2.70;;;;;;;;;;5001523;28;20049;-76
2023/08/03 06:03:41;;;;;;;6.30;2.75;;;;;;;;;;5000878;28;20038;-76
2023/08/03 06:06:10;;;;;;;7.55;2.55;;;;;;;;;;4994929;28;20053;-76
2023/08/03 06:08:36;;;;;;;4.65;2.63;;;;;;;;;;5000392;28;20789;-76
2023/08/03 06:11:03;;;;;;;9.98;2.80;;;;;;;;;;4995767;28;20054;-76
2023/08/03 06:13:33;;;;;;;5.32;2.60;;;;;;;;;;5000349;28;20064;-76
2023/08/03 06:16:03;;;;;;;6.93;3.03;;;;;;;;;;4993014;28;20125;-76
2023/08/03 06:18:30;;;;;;;7.40;2.75;;;;;;;;;;4996836;28;20053;-76
2023/08/03 06:20:56;;;;;;;6.80;2.80;;;;;;;;;;5005101;28;20039;-76
2023/08/03 06:23:28;;;;;;;6.57;2.55;;;;;;;;;;4998953;28;20100;-76
2023/08/03 06:25:57;;;;;;;6.80;2.72;;;;;;;;;;5008212;28;20042;-76
2023/08/03 06:28:24;;;;;;;4.70;2.70;;;;;;;;;;4997149;28;20061;-76
2023/08/03 06:30:51;;;;;;;5.30;2.20;;;;;;;;;;5004199;28;20049;-75
2023/08/03 06:33:21;;;;;;;8.15;2.95;;;;;;;;;;5006046;28;20042;-76
2023/08/03 06:35:48;;;;;;;3.20;2.20;;;;;;;;;;5011046;28;20046;-76
2023/08/03 06:38:19;;;;;;;9.98;2.50;;;;;;;;;;4999444;28;20379;-76
2023/08/03 06:40:46;;;;;;;7.15;2.70;;;;;;;;;;5001711;28;20046;-76
2023/08/03 06:43:13;;;;;;;6.95;2.90;;;;;;;;;;5011224;28;20671;-76
2023/08/03 06:45:39;;;;;;;11.15;3.00;;;;;;;;;;5000507;28;20995;-75
2023/08/03 06:48:05;;;;;;;10.50;3.40;;;;;;;;;;5003880;28;20042;-75
2023/08/03 06:50:32;;;;;;;10.55;3.47;;;;;;;;;;5009137;28;20056;-76
2023/08/03 06:52:58;;;;;;;12.30;3.40;;;;;;;;;;5008987;28;20096;-75
2023/08/03 06:55:24;;;;;;;9.80;3.50;;;;;;;;;;5008143;28;20072;-76
2023/08/03 06:57:51;;;;;;;12.25;3.80;;;;;;;;;;5002144;28;20050;-76
2023/08/03 07:00:17;;;;;;;7.95;3.70;;;;;;;;;;5003519;28;20057;-75
2023/08/03 07:02:44;;;;;;;9.55;3.22;;;;;;;;;;5008754;28;20056;-76
2023/08/03 07:05:10;;;;;;;11.40;3.95;;;;;;;;;;5006450;28;20133;-75
2023/08/03 07:07:36;;;;;;;9.07;3.35;;;;;;;;;;5005544;28;20104;-76
2023/08/03 07:10:02;;;;;;;9.50;3.70;;;;;;;;;;5008366;28;20096;-75
2023/08/03 07:12:28;;;;;;;11.27;3.72;;;;;;;;;;5009064;28;20050;-75
2023/08/03 07:14:55;;;;;;;8.00;3.40;;;;;;;;;;5006411;28;20053;-75
2023/08/03 07:17:21;;;;;;;10.73;3.58;;;;;;;;;;5009127;28;20045;-75
2023/08/03 07:19:54;;;;;;;11.48;3.80;;;;;;;;;;5006262;28;20153;-76
2023/08/03 07:22:20;;;;;;;;;;;;;;;;;;5009800;28;20049;-76
2023/08/03 07:24:46;;;;;;;7.47;3.47;;;;;;;;;;5008737;28;19983;-76
2023/08/03 07:27:12;;;;;;;8.35;3.35;;;;;;;;;;5009328;28;20081;-75
2023/08/03 07:29:38;;;;;;;6.75;3.33;;;;;;;;;;5026502;28;20128;-75
2023/08/03 07:32:05;;;;;;;9.98;3.90;;;;;;;;;;5012996;28;20062;-76
2023/08/03 07:34:31;;;;;;;10.70;3.72;;;;;;;;;;4984645;28;20042;-76
2023/08/03 07:36:57;;;;;;;9.95;4.65;;;;;;;;;;5000724;28;20046;-76
2023/08/03 07:39:24;;;;;;;11.07;3.63;;;;;;;;;;5010299;28;20053;-76
2023/08/03 07:41:50;;;;;;;10.68;3.53;;;;;;;;;;5024010;28;20505;-75
2023/08/03 07:44:17;;;;;;;9.35;4.20;;;;;;;;;;5011108;28;20038;-75
2023/08/03 07:46:43;;;;;;;9.02;3.72;;;;;;;;;;5007943;28;20045;-74
2023/08/03 07:49:09;;;;;;;6.78;3.63;;;;;;;;;;5003082;28;20034;-74
2023/08/03 07:51:36;;;;;;;8.45;3.75;;;;;;;;;;4997427;28;20054;-74
2023/08/03 07:54:02;;;;;;;11.73;4.43;;;;;;;;;;4995852;28;20235;-74
2023/08/03 07:56:28;;;;;;;11.15;3.58;;;;;;;;;;5014324;28;20494;-74
2023/08/03 07:58:54;;;;;;;10.85;3.70;;;;;;;;;;5028087;28;20061;-75
2023/08/03 08:01:20;;;;;;;9.25;3.63;;;;;;;;;;5013602;28;20046;-75
2023/08/03 08:03:47;;;;;;;6.50;3.58;;;;;;;;;;5019616;28;20045;-75
2023/08/03 08:06:17;;;;;;;8.43;3.38;;;;;;;;;;5029438;28;20084;-75
2023/08/03 08:08:43;;;;;;;8.93;3.22;;;;;;;;;;5006247;28;20049;-74
2023/08/03 08:11:09;;;;;;;5.93;2.90;;;;;;;;;;4988734;28;20049;-74
2023/08/03 08:13:35;;;;;;;6.80;2.50;;;;;;;;;;5021298;28;20397;-74
2023/08/03 08:16:02;;;;;;;5.93;2.50;;;;;;;;;;5033073;28;20508;-74
2023/08/03 08:18:29;;;;;;;8.70;2.40;;;;;;;;;;5030561;28;20048;-74
2023/08/03 08:20:56;;;;;;;5.80;2.20;;;;;;;;;;5032364;28;20136;-74
2023/08/03 08:23:22;;;;;;;7.18;2.20;;;;;;;;;;4994387;28;20054;-74
2023/08/03 08:25:48;;;;;;;6.65;2.20;;;;;;;;;;4986866;28;20608;-74
2023/08/03 08:28:14;;;;;;;9.07;2.60;;;;;;;;;;5006166;28;20077;-74
2023/08/03 08:30:42;;;;;;;5.20;2.05;;;;;;;;;;5009881;28;20042;-74
2023/08/03 08:33:08;;;;;;;6.95;2.35;;;;;;;;;;5013245;28;20042;-75
2023/08/03 08:35:34;;;;;;;3.33;2.13;;;;;;;;;;5012342;28;20045;-74
2023/08/03 08:38:00;;;;;;;5.88;2.10;;;;;;;;;;5002605;28;20073;-75
2023/08/03 08:40:29;;;;;;;5.75;1.88;;;;;;;;;;5009783;28;20062;-75
2023/08/03 08:42:56;;;;;;;7.75;2.40;;;;;;;;;;5012150;28;20129;-75
2023/08/03 08:45:23;;;;;;;6.95;2.35;;;;;;;;;;5009463;28;20924;-75
2023/08/03 08:47:49;;;;;;;12.85;2.72;;;;;;;;;;5010951;28;20536;-75
2023/08/03 08:50:15;;;;;;;6.15;1.80;;;;;;;;;;5011106;28;20457;-75
2023/08/03 08:52:43;;;;;;;5.18;2.25;;;;;;;;;;5019808;28;20046;-75
2023/08/03 08:55:12;;;;;;;5.93;2.35;;;;;;;;;;5001889;28;20084;-75
2023/08/03 08:57:39;;;;;;;6.05;2.13;;;;;;;;;;5009884;28;20046;-75
2023/08/03 09:00:07;;;;;;;8.90;2.47;;;;;;;;;;4996278;28;20045;-76
2023/08/03 09:02:33;;;;;;;5.07;2.33;;;;;;;;;;5007410;28;20137;-76
2023/08/03 09:05:09;;;;;;;7.53;2.78;;;;;;;;;;5011252;28;20049;-76
2023/08/03 09:07:35;;;;;;;12.73;3.05;;;;;;;;;;5007134;28;20049;-74
2023/08/03 09:10:03;;;;;;;10.60;3.20;;;;;;;;;;5007417;28;20046;-75
2023/08/03 09:12:30;;;;;;;13.65;4.22;;;;;;;;;;5010644;28;20099;-75
2023/08/03 09:14:57;;;;;;;16.08;4.05;;;;;;;;;;5008124;28;20050;-75
2023/08/03 09:17:23;;;;;;;15.88;4.15;;;;;;;;;;5006868;28;20053;-75
2023/08/03 09:19:49;;;;;;;10.63;4.05;;;;;;;;;;5008908;28;20121;-75
2023/08/03 09:22:16;;;;;;;13.18;4.03;;;;;;;;;;5010886;28;20045;-75
2023/08/03 09:24:42;;;;;;;14.25;3.95;;;;;;;;;;5007167;28;20132;-76
2023/08/03 09:27:08;;;;;;;13.52;3.80;;;;;;;;;;5006258;28;20608;-75
2023/08/03 09:29:34;;;;;;;18.17;4.60;;;;;;;;;;5008847;28;20046;-76
2023/08/03 09:32:01;;;;;;;13.48;4.05;;;;;;;;;;4998837;28;20061;-76
2023/08/03 09:34:42;;;;;;;14.02;4.32;;;;;;;;;;4983289;28;20058;-76
2023/08/03 09:37:08;;;;;;;10.10;4.10;;;;;;;;;;5005093;28;20111;-76
2023/08/03 09:39:34;;;;;;;11.60;3.75;;;;;;;;;;4995489;28;20482;-76
2023/08/03 09:42:05;;;;;;;12.40;3.10;;;;;;;;;;5001667;28;20509;-76
2023/08/03 09:44:33;;;;;;;14.15;3.30;;;;;;;;;;4999685;28;20076;-76
2023/08/03 09:47:03;;;;;;;11.48;3.28;;;;;;;;;;4983131;28;20158;-76
2023/08/03 09:49:30;;;;;;;11.98;3.30;;;;;;;;;;4987362;28;20077;-75
2023/08/03 09:51:57;;;;;;;7.78;2.80;;;;;;;;;;4988957;28;20042;-75
2023/08/03 09:54:25;;;;;;;7.30;2.80;;;;;;;;;;4978032;28;20053;-76
2023/08/03 09:56:54;;;;;;;9.80;2.42;;;;;;;;;;4986076;28;20808;-76
2023/08/03 09:59:27;;;;;;;9.00;2.80;;;;;;;;;;5004997;28;20486;-75
2023/08/03 10:01:58;;;;;;;9.02;2.97;;;;;;;;;;4998371;28;20660;-75
2023/08/03 10:04:25;;;;;;;7.72;2.90;;;;;;;;;;4991211;28;20069;-75
2023/08/03 10:06:54;;;;;;;6.15;2.45;;;;;;;;;;4985098;28;20048;-75
2023/08/03 10:09:22;;;;;;;8.02;2.50;;;;;;;;;;4999397;28;20042;-75
2023/08/03 10:11:51;;;;;;;10.38;2.80;;;;;;;;;;4998568;28;20045;-75
2023/08/03 10:14:17;;;;;;;5.85;2.38;;;;;;;;;;5006660;28;20041;-75
2023/08/03 10:16:44;;;;;;;8.00;2.78;;;;;;;;;;4986072;28;20053;-75
2023/08/03 10:19:10;;;;;;;9.02;3.40;;;;;;;;;;5005165;28;20490;-75
2023/08/03 10:21:37;;;;;;;12.13;4.13;;;;;;;;;;4998287;28;20073;-76
2023/08/03 10:24:09;;;;;;;10.73;3.10;;;;;;;;;;5005870;28;20237;-75
2023/08/03 10:26:35;;;;;;;10.18;3.35;;;;;;;;;;5010014;28;20091;-75
2023/08/03 10:29:01;;;;;;;8.50;3.20;;;;;;;;;;4994245;28;20058;-75
2023/08/03 10:31:28;;;;;;;11.13;3.30;;;;;;;;;;5014475;28;20375;-75
2023/08/03 10:33:55;;;;;;;10.48;3.08;;;;;;;;;;4992474;28;20046;-75
2023/08/03 10:36:30;;;;;;;11.82;3.65;;;;;;;;;;4992635;28;20065;-75
2023/08/03 10:38:58;;;;;;;11.82;3.50;;;;;;;;;;4994516;28;20088;-75
2023/08/03 10:41:25;;;;;;;14.60;4.18;;;;;;;;;;4993950;28;20136;-75
2023/08/03 10:44:07;;;;;;;11.70;4.15;;;;;;;;;;5003621;28;20069;-76
2023/08/03 10:46:39;;;;;;;10.45;2.90;;;;;;;;;;4981573;28;20058;-76
2023/08/03 10:49:22;;;;;;;9.60;3.13;;;;;;;;;;4988495;28;20084;-76
2023/08/03 10:51:49;;;;;;;12.85;3.42;;;;;;;;;;4991823;28;20068;-76
2023/08/03 10:54:42;;;;;;;10.02;3.28;;;;;;;;;;4997162;28;20054;-75
2023/08/03 10:57:09;;;;;;;10.95;3.20;;;;;;;;;;5003065;28;20172;-75
2023/08/03 10:59:46;;;;;;;11.02;2.95;;;;;;;;;;4984023;28;20041;-76
2023/08/03 11:02:20;;;;;;;6.68;2.63;;;;;;;;;;5004246;28;20486;-75
2023/08/03 11:04:47;;;;;;;8.63;2.75;;;;;;;;;;4989436;28;20046;-75
2023/08/03 11:07:15;;;;;;;6.30;2.70;;;;;;;;;;4992122;28;20057;-75
2023/08/03 11:09:41;;;;;;;6.85;3.00;;;;;;;;;;4989439;28;20053;-76
2023/08/03 11:12:08;;;;;;;7.10;2.53;;;;;;;;;;4992731;28;20113;-76
2023/08/03 11:14:37;;;;;;;6.85;3.28;;;;;;;;;;4987395;28;20042;-76
2023/08/03 11:17:03;;;;;;;10.35;2.90;;;;;;;;;;4991364;28;20088;-76
2023/08/03 11:19:32;;;;;;;7.05;3.05;;;;;;;;;;4987506;28;20124;-76
2023/08/03 11:22:01;;;;;;;11.13;3.03;;;;;;;;;;4984837;28;20054;-76
2023/08/03 11:24:31;;;;;;;9.98;3.83;;;;;;;;;;4980219;28;20140;-76
2023/08/03 11:27:00;;;;;;;11.38;3.40;;;;;;;;;;5009277;28;20048;-75
2023/08/03 11:29:26;;;;;;;11.40;3.85;;;;;;;;;;5008149;28;20042;-76
2023/08/03 11:31:52;;;;;;;9.95;3.47;;;;;;;;;;5012522;28;20343;-75
2023/08/03 11:34:19;;;;;;;13.05;3.70;;;;;;;;;;5013142;28;20133;-76
2023/08/03 11:36:48;;;;;;;11.88;4.10;;;;;;;;;;5010531;28;20059;-76
2023/08/03 11:39:15;;;;;;;12.85;4.47;;;;;;;;;;4999797;28;20092;-76
2023/08/03 11:41:42;;;;;;;11.05;4.00;;;;;;;;;;5006295;28;20050;-76
2023/08/03 11:44:08;;;;;;;14.63;4.20;;;;;;;;;;5008343;28;20109;-75
2023/08/03 11:46:34;;;;;;;11.80;3.80;;;;;;;;;;5010814;28;20050;-75
2023/08/03 11:49:02;;;;;;;10.70;3.88;;;;;;;;;;5011637;28;20050;-75
2023/08/03 11:51:38;;;;;;;10.48;4.10;;;;;;;;;;4997431;28;20470;-75
2023/08/03 11:54:07;;;;;;;14.23;4.30;;;;;;;;;;5012567;28;20041;-75
2023/08/03 11:56:34;;;;;;;9.55;3.95;;;;;;;;;;5011683;28;20048;-75
2023/08/03 11:59:04;;;;;;;15.13;4.78;;;;;;;;;;5004737;28;20073;-78
2023/08/03 12:01:30;;;;;;;14.57;4.30;;;;;;;;;;5011955;28;20485;-76
2023/08/03 12:04:06;;;;;;;15.68;4.07;;;;;;;;;;5012715;28;20057;-76
2023/08/03 12:06:42;;;;;;;11.75;4.60;;;;;;;;;;5008192;28;20121;-75
2023/08/03 12:09:08;;;;;;;19.90;4.70;;;;;;;;;;5011870;28;20054;-75
2023/08/03 12:11:34;;;;;;;12.93;4.43;;;;;;;;;;5012383;28;20121;-77
2023/08/03 12:14:00;;;;;;;17.15;5.00;;;;;;;;;;5009364;28;20132;-76
2023/08/03 12:16:26;;;;;;;16.15;4.78;;;;;;;;;;5011240;28;20042;-74
2023/08/03 12:18:53;;;;;;;16.60;5.15;;;;;;;;;;5009345;28;20056;-75
2023/08/03 12:21:19;;;;;;;12.90;5.00;;;;;;;;;;5009193;28;20077;-75
2023/08/03 12:23:45;;;;;;;15.20;4.75;;;;;;;;;;5009178;28;20038;-75
2023/08/03 12:26:11;;;;;;;15.05;4.38;;;;;;;;;;5005677;28;20516;-76
2023/08/03 12:28:37;;;;;;;17.55;4.53;;;;;;;;;;5009005;28;20494;-76
2023/08/03 12:31:05;;;;;;;13.20;5.00;;;;;;;;;;4993754;28;20124;-76
2023/08/03 12:33:31;;;;;;;15.52;5.00;;;;;;;;;;5004823;28;20148;-76
2023/08/03 12:35:57;;;;;;;12.98;4.60;;;;;;;;;;5018808;28;20098;-76
2023/08/03 12:38:23;;;;;;;19.95;5.38;;;;;;;;;;5012874;28;20184;-77
2023/08/03 12:40:49;;;;;;;14.90;5.10;;;;;;;;;;5014702;28;20046;-76
2023/08/03 12:43:15;;;;;;;13.38;4.47;;;;;;;;;;4994269;28;20498;-77
2023/08/03 12:45:41;;;;;;;16.83;4.93;;;;;;;;;;5009580;28;20478;-77
2023/08/03 12:48:07;;;;;;;13.30;4.85;;;;;;;;;;5017587;28;20041;-76
2023/08/03 12:50:33;;;;;;;15.43;4.63;;;;;;;;;;4998550;28;20042;-77
2023/08/03 12:52:59;;;;;;;17.25;5.20;;;;;;;;;;4982473;28;20050;-77
2023/08/03 12:55:25;;;;;;;15.73;5.00;;;;;;;;;;5004466;28;20049;-76
2023/08/03 12:57:51;;;;;;;17.65;5.10;;;;;;;;;;4995940;28;20042;-77
2023/08/03 13:00:17;;;;;;;19.30;5.28;;;;;;;;;;4989707;28;20104;-77
2023/08/03 13:02:43;;;;;;;13.65;5.13;;;;;;;;;;4983427;28;20041;-77
2023/08/03 13:05:09;;;;;;;14.68;3.80;;;;;;;;;;5011617;28;20038;-76
2023/08/03 13:07:35;;;;;;;15.60;4.35;;;;;;;;;;4991561;28;20449;-77
2023/08/03 13:10:01;;;;;;;15.45;4.60;;;;;;;;;;5010687;28;20088;-77
2023/08/03 13:12:27;;;;;;;10.10;4.10;;;;;;;;;;4991030;28;20049;-77
2023/08/03 13:14:53;;;;;;;13.55;4.63;;;;;;;;;;4989967;28;20049;-76
2023/08/03 13:17:19;;;;;;;13.88;4.45;;;;;;;;;;5009430;28;20053;-76
2023/08/03 13:19:45;;;;;;;10.98;4.32;;;;;;;;;;4994696;28;20449;-76
2023/08/03 13:22:11;;;;;;;14.07;4.65;;;;;;;;;;5007828;28;20492;-76
2023/08/03 13:24:37;;;;;;;13.05;4.25;;;;;;;;;;5013421;28;20042;-76
2023/08/03 13:27:17;;;;;;;11.23;3.92;;;;;;;;;;5008172;28;20050;-76
2023/08/03 13:29:48;;;;;;;15.55;4.50;;;;;;;;;;5007090;28;20108;-76
2023/08/03 13:32:17;;;;;;;14.07;4.72;;;;;;;;;;5008847;28;20081;-76
2023/08/03 13:34:43;;;;;;;14.98;4.82;;;;;;;;;;5007822;28;20046;-76
2023/08/03 13:37:09;;;;;;;14.05;3.83;;;;;;;;;;5003989;28;20090;-76
2023/08/03 13:39:35;;;;;;;11.95;3.72;;;;;;;;;;5009195;28;20084;-76
2023/08/03 13:42:01;;;;;;;10.10;3.88;;;;;;;;;;5011934;28;20046;-76
2023/08/03 13:44:27;;;;;;;11.23;3.90;;;;;;;;;;5009512;28;20042;-76
2023/08/03 13:46:53;;;;;;;10.07;3.25;;;;;;;;;;5007943;28;20101;-75
2023/08/03 13:49:19;;;;;;;10.07;3.50;;;;;;;;;;5009319;28;20465;-75
2023/08/03 13:51:46;;;;;;;9.52;3.95;;;;;;;;;;5010408;28;20050;-75
2023/08/03 13:54:12;;;;;;;9.07;3.58;;;;;;;;;;5009660;28;20050;-75
2023/08/03 13:56:38;;;;;;;11.95;3.53;;;;;;;;;;5006888;28;20048;-73
2023/08/03 13:59:04;;;;;;;14.02;3.80;;;;;;;;;;5011104;28;20041;-75
2023/08/03 14:01:36;;;;;;;10.63;4.00;;;;;;;;;;5004305;28;20060;-74
2023/08/03 14:04:02;;;;;;;10.18;3.72;;;;;;;;;;5002716;28;20449;-75
2023/08/03 14:06:28;;;;;;;11.32;3.42;;;;;;;;;;5010454;28;20061;-75
2023/08/03 14:08:55;;;;;;;11.73;3.70;;;;;;;;;;5011334;28;20041;-75
2023/08/03 14:11:21;;;;;;;12.55;4.00;;;;;;;;;;5012967;28;20397;-75
2023/08/03 14:13:47;;;;;;;11.95;3.60;;;;;;;;;;5009670;28;20049;-74
2023/08/03 14:16:17;;;;;;;9.77;3.60;;;;;;;;;;5003845;28;20046;-74
2023/08/03 14:18:43;;;;;;;10.32;3.40;;;;;;;;;;5011300;28;20133;-75
2023/08/03 14:21:09;;;;;;;9.93;3.42;;;;;;;;;;5010267;28;20038;-75
2023/08/03 14:23:35;;;;;;;11.60;3.22;;;;;;;;;;5007259;28;20054;-75
2023/08/03 14:26:01;;;;;;;12.45;3.85;;;;;;;;;;5006958;28;20486;-76
2023/08/03 14:28:27;;;;;;;10.02;3.80;;;;;;;;;;5007252;28;20054;-75
2023/08/03 14:30:53;;;;;;;13.13;3.50;;;;;;;;;;5007274;28;20085;-75
2023/08/03 14:33:22;;;;;;;12.65;3.42;;;;;;;;;;5007996;28;20065;-75
2023/08/03 14:35:48;;;;;;;9.07;3.10;;;;;;;;;;5010528;28;20122;-76